KEYWKFMY

Guest
Details From KEYW - Key West Intl
To KFMY - Page Fld
Flight Number -
Tags generated
Created
Modified
Stats Distance 122 nm / 226 km
Max Altitude 12,100 ft / 3,688 m
Waypoints 3
Social Downloads 1
Likes 0
Share VATSIM

Download

Looking for another format? Having issues loading an existing format? Contact us
Advertisement - Login to hide

Notes

Basic altitude profile: - Ascent Rate: 2500ft/min - Ascent Speed: 250kts - Cruise Altitude: 35000ft - Cruise Speed: 420kts - Descent Rate: 1500ft/min - Descent Speed: 250kts Options: - Use NATs: yes - Use PACOTS: yes - Use low airways: yes - Use high airways: no

Route

KEYW RIGOR KFMY

ID Type Via Altitude Latitude Longitude Leg Dist Tot Dist Heading (true) Name
O KEYW APT - 0 ft / 0 m 24.55612˚ -81.75955˚ - 0 nm - Key West Intl
RIGOR FIX - 12,100 ft / 3,688 m 25.12269˚ -81.79287˚ 34 nm 34 nm 357° / 357° -
O KFMY APT - 0 ft / 0 m 26.58672˚ -81.86316˚ 88 nm 122 nm 358° / 358° Page Fld

Altitude Profile

Advertisement - Login to hide

KEYW

Details ICAO KEYW (EYW)
Name Key West Intl
Region United States
Timezone America/New_York (UTC-5.0)
Stats Elevation 2 ft / 1 m (AMSL)
Location 24.556124° -81.759546°
Runways 1
Magnetic Variation 5.546° W

METAR

KEYW 180653Z AUTO 05007KT 10SM CLR 23/22 A3018 RMK AO2 SLP219 T02280217 $

Decode

TAF

KEYW 180537Z 1806/1906 06007KT P6SM FEW015 SCT040 TEMPO 1812/1814 BKN025 FM181400 09011KT P6SM SCT025

Decode

Departure Runways

ID Width Length Bearing (true) Bearing (mag) Surface Threshold Offset Overrun Length
09 100 ft / 30 m 4,794 ft / 1,461 m 89.38° 94.93° Asphalt 151 ft / 46 m 0 ft / 0 m
27 100 ft / 30 m 4,794 ft / 1,461 m 269.39° 274.94° Asphalt 151 ft / 46 m 0 ft / 0 m

KFMY

Details ICAO KFMY (FMY)
Name Page Fld
Region United States
Timezone America/New_York (UTC-5.0)
Stats Elevation 17 ft / 5 m (AMSL)
Location 26.586721° -81.863157°
Runways 2
Magnetic Variation 5.781° W

METAR

KFMY 180653Z AUTO 07003KT 6SM BR CLR 19/18 A3021 RMK AO2 SLP230 T01890183

Decode

TAF

TAF KFMY 180538Z 1806/1906 VRB03KT P6SM FEW040 SCT250 FM180800 VRB03KT 4SM BR SCT005 SCT250 TEMPO 1809/1813 1SM BR BKN003 FM181400 12005KT P6SM SCT025 SCT250 FM181700 14005KT P6SM SCT040 SCT250 FM182000 27006KT P6SM SCT050 SCT250 FM190000 VRB03KT P6SM FEW050 SCT250

Decode

Destination Runways

ID Width Length Bearing (true) Bearing (mag) Surface Threshold Offset Overrun Length
05 150 ft / 46 m 6,413 ft / 1,955 m 47.70° 53.48° Asphalt 459 ft / 140 m 0 ft / 0 m
13 150 ft / 46 m 4,915 ft / 1,498 m 130.63° 136.41° Asphalt 615 ft / 187 m 0 ft / 0 m
23 150 ft / 46 m 6,413 ft / 1,955 m 227.71° 233.49° Asphalt 399 ft / 122 m 0 ft / 0 m
31 150 ft / 46 m 4,915 ft / 1,498 m 310.64° 316.42° Asphalt 0 ft / 0 m 0 ft / 0 m

Approach Navaids

Runway Type Ident Frequency Range Bearing (true) Bearing (mag) Slope Elevation
05 Localiser IFMY 110.70 MHz 18 nm / 33 km 47.71° 53.49° - 16 ft / 5 m (AMSL)
05 Glidescope IFMY 110.70 MHz 10 nm / 19 km 47.71° 53.49° 3.00° 14 ft / 4 m (AMSL)